createdAt,value
2019-02-07T00:00:47.741Z,999.45
2019-02-07T00:01:47.758Z,999.43
2019-02-07T00:02:47.776Z,999.42
2019-02-07T00:03:47.791Z,999.41
2019-02-07T00:04:47.808Z,999.36
2019-02-07T00:05:47.826Z,999.33
2019-02-07T00:06:47.840Z,999.31
2019-02-07T00:07:47.862Z,999.27
2019-02-07T00:08:47.874Z,999.31
2019-02-07T00:09:47.891Z,999.26
2019-02-07T00:10:47.906Z,999.22
2019-02-07T00:11:47.924Z,999.19
2019-02-07T00:12:47.940Z,999.16
2019-02-07T00:13:47.956Z,999.15
2019-02-07T00:14:47.974Z,999.06
2019-02-07T00:15:47.990Z,999.07
2019-02-07T00:16:48.007Z,998.98
2019-02-07T00:17:48.024Z,999.01
2019-02-07T00:18:48.040Z,999.01
2019-02-07T00:19:48.056Z,999.03
2019-02-07T00:20:48.074Z,998.95
2019-02-07T00:21:48.090Z,998.96
2019-02-07T00:22:48.146Z,998.99
2019-02-07T00:23:48.122Z,998.93
2019-02-07T00:24:48.139Z,998.87
2019-02-07T00:25:48.156Z,998.87
2019-02-07T00:26:48.173Z,998.83
2019-02-07T00:27:48.188Z,998.89
2019-02-07T00:28:48.204Z,998.82
2019-02-07T00:29:48.222Z,998.85
2019-02-07T00:30:48.239Z,998.85
2019-02-07T00:31:48.254Z,998.85
2019-02-07T00:32:48.271Z,998.88
2019-02-07T00:33:48.287Z,998.88
2019-02-07T00:34:48.305Z,998.83
2019-02-07T00:35:48.320Z,998.85
2019-02-07T00:36:48.337Z,998.8
2019-02-07T00:37:48.354Z,998.7
2019-02-07T00:38:48.370Z,998.65
2019-02-07T00:39:48.386Z,998.61
2019-02-07T00:40:48.404Z,998.68
2019-02-07T00:41:48.420Z,998.61
2019-02-07T00:42:48.438Z,998.64
2019-02-07T00:43:48.471Z,998.59
2019-02-07T00:44:50.503Z,998.6
2019-02-07T00:45:48.487Z,998.57
2019-02-07T00:46:48.503Z,998.64
2019-02-07T00:47:48.520Z,998.6
2019-02-07T00:48:48.537Z,998.54
2019-02-07T00:49:48.552Z,998.47
2019-02-07T00:50:48.570Z,998.47
2019-02-07T00:51:48.586Z,998.54
2019-02-07T00:52:48.605Z,998.54
2019-02-07T00:53:48.619Z,998.5
2019-02-07T00:54:48.636Z,998.48
2019-02-07T00:55:48.655Z,998.49
2019-02-07T00:56:48.671Z,998.45
2019-02-07T00:57:48.835Z,998.49
2019-02-07T00:58:48.701Z,998.5
2019-02-07T00:59:48.717Z,998.5
2019-02-07T01:00:48.736Z,998.46
2019-02-07T01:01:48.750Z,998.48
2019-02-07T01:02:48.768Z,998.51
2019-02-07T01:03:48.784Z,998.46
2019-02-07T01:04:48.800Z,998.49
2019-02-07T01:05:48.817Z,998.5
2019-02-07T01:06:48.834Z,998.46
2019-02-07T01:07:48.851Z,998.42
2019-02-07T01:08:48.866Z,998.43
2019-02-07T01:09:48.884Z,998.44
2019-02-07T01:10:48.902Z,998.34
2019-02-07T01:11:48.916Z,998.31
2019-02-07T01:12:48.931Z,998.28
2019-02-07T01:13:48.949Z,998.23
2019-02-07T01:14:48.966Z,998.27
2019-02-07T01:15:48.982Z,998.33
2019-02-07T01:16:49.000Z,998.27
2019-02-07T01:17:49.015Z,998.27
2019-02-07T01:18:49.033Z,998.25
2019-02-07T01:19:49.048Z,998.16
2019-02-07T01:20:49.065Z,998.17
2019-02-07T01:21:49.081Z,998.11
2019-02-07T01:22:49.097Z,998.08
2019-02-07T01:23:49.114Z,998.08
2019-02-07T01:24:49.131Z,998.15
2019-02-07T01:25:49.147Z,998.11
2019-02-07T01:26:49.163Z,998.03
2019-02-07T01:27:49.180Z,998.08
2019-02-07T01:28:49.196Z,998.04
2019-02-07T01:29:49.214Z,998.01
2019-02-07T01:30:49.231Z,998
2019-02-07T01:31:49.245Z,998.02
2019-02-07T01:32:49.264Z,998
2019-02-07T01:33:49.281Z,998.01
2019-02-07T01:34:49.295Z,997.92
2019-02-07T01:35:49.313Z,997.96
2019-02-07T01:36:49.329Z,997.92
2019-02-07T01:37:49.349Z,997.91
2019-02-07T01:38:49.361Z,997.88
2019-02-07T01:39:49.379Z,997.87
2019-02-07T01:40:49.395Z,997.9
2019-02-07T01:41:49.411Z,997.87
2019-02-07T01:42:49.525Z,997.83
2019-02-07T01:43:49.444Z,997.85
2019-02-07T01:44:49.461Z,997.86
2019-02-07T01:45:49.477Z,997.83
2019-02-07T01:46:49.494Z,997.79
2019-02-07T01:47:49.509Z,997.84
2019-02-07T01:48:49.527Z,997.83
2019-02-07T01:49:49.541Z,997.85
2019-02-07T01:50:49.560Z,997.85
2019-02-07T01:51:49.576Z,997.83
2019-02-07T01:52:49.592Z,997.8
2019-02-07T01:53:49.608Z,997.7
2019-02-07T01:54:49.626Z,997.7
2019-02-07T01:55:49.642Z,997.71
2019-02-07T01:56:49.659Z,997.62
2019-02-07T01:57:49.680Z,997.61
2019-02-07T01:58:49.692Z,997.59
2019-02-07T01:59:49.710Z,997.6
2019-02-07T02:00:49.726Z,997.55
2019-02-07T02:01:49.740Z,997.56
2019-02-07T02:02:49.757Z,997.53
2019-02-07T02:03:49.773Z,997.48
2019-02-07T02:04:49.791Z,997.51
2019-02-07T02:05:49.806Z,997.45
2019-02-07T02:06:49.823Z,997.52
2019-02-07T02:07:49.838Z,997.5
2019-02-07T02:08:49.856Z,997.44
2019-02-07T02:09:49.873Z,997.48
2019-02-07T02:10:49.888Z,997.4
2019-02-07T02:11:49.904Z,997.38
2019-02-07T02:12:49.921Z,997.39
2019-02-07T02:13:49.937Z,997.38
2019-02-07T02:14:49.953Z,997.34
2019-02-07T02:15:49.970Z,997.31
2019-02-07T02:16:49.987Z,997.25
2019-02-07T02:17:50.007Z,997.21
2019-02-07T02:18:50.022Z,997.21
2019-02-07T02:19:50.037Z,997.11
2019-02-07T02:20:50.054Z,997.03
2019-02-07T02:21:50.071Z,997.04
2019-02-07T02:22:50.086Z,996.99
2019-02-07T02:23:50.104Z,996.97
2019-02-07T02:24:50.119Z,996.88
2019-02-07T02:25:50.138Z,996.94
2019-02-07T02:26:50.154Z,996.98
2019-02-07T02:27:50.169Z,996.91
2019-02-07T02:28:50.184Z,996.96
2019-02-07T02:29:50.201Z,996.9
2019-02-07T02:30:50.218Z,996.94
2019-02-07T02:31:50.236Z,996.89
2019-02-07T02:32:50.251Z,996.87
2019-02-07T02:33:50.267Z,996.84
2019-02-07T02:34:50.288Z,996.82
2019-02-07T02:35:50.301Z,996.74
2019-02-07T02:36:50.316Z,996.72
2019-02-07T02:37:50.331Z,996.71
2019-02-07T02:38:50.349Z,996.67
2019-02-07T02:39:50.365Z,996.59
2019-02-07T02:40:50.381Z,996.62
2019-02-07T02:41:50.399Z,996.57
2019-02-07T02:42:50.415Z,996.6
2019-02-07T02:43:50.430Z,996.53
2019-02-07T02:44:50.449Z,996.64
2019-02-07T02:45:50.464Z,996.63
2019-02-07T02:46:50.481Z,996.62
2019-02-07T02:47:50.498Z,996.6
2019-02-07T02:48:50.514Z,996.56
2019-02-07T02:49:50.531Z,996.51
2019-02-07T02:50:50.545Z,996.48
2019-02-07T02:51:50.563Z,996.42
2019-02-07T02:52:50.594Z,996.35
2019-02-07T02:53:50.594Z,996.28
2019-02-07T02:54:50.610Z,996.33
2019-02-07T02:55:50.627Z,996.3
2019-02-07T02:56:50.642Z,996.26
2019-02-07T02:57:50.661Z,996.22
2019-02-07T02:58:50.676Z,996.15
2019-02-07T02:59:50.699Z,996.18
2019-02-07T03:00:50.711Z,996.19
2019-02-07T03:01:50.749Z,996.18
2019-02-07T03:02:50.743Z,996.26
2019-02-07T03:03:50.758Z,996.26
2019-02-07T03:04:50.785Z,996.25
2019-02-07T03:05:50.791Z,996.29
2019-02-07T03:06:50.807Z,996.2
2019-02-07T03:07:50.824Z,996.2
2019-02-07T03:08:50.847Z,996.2
2019-02-07T03:09:50.859Z,996.23
2019-02-07T03:10:50.874Z,996.22
2019-02-07T03:11:50.891Z,996.21
2019-02-07T03:12:50.907Z,996.2
2019-02-07T03:13:50.923Z,996.14
2019-02-07T03:14:50.941Z,996.09
2019-02-07T03:15:50.955Z,996.03
2019-02-07T03:16:50.972Z,996.06
2019-02-07T03:17:51.009Z,996.01
2019-02-07T03:18:51.006Z,996.01
2019-02-07T03:19:51.023Z,996.01
2019-02-07T03:20:51.038Z,995.99
2019-02-07T03:21:51.054Z,995.97
2019-02-07T03:22:51.074Z,995.93
2019-02-07T03:23:51.087Z,995.94
2019-02-07T03:24:51.104Z,995.93
2019-02-07T03:25:51.120Z,995.89
2019-02-07T03:26:51.138Z,995.88
2019-02-07T03:27:51.154Z,995.89
2019-02-07T03:28:51.171Z,995.94
2019-02-07T03:29:51.188Z,995.74
2019-02-07T03:30:51.209Z,995.77
2019-02-07T03:31:51.223Z,995.77
2019-02-07T03:32:51.239Z,995.86
2019-02-07T03:33:51.255Z,995.77
2019-02-07T03:34:51.268Z,995.67
2019-02-07T03:35:51.285Z,995.64
2019-02-07T03:36:51.305Z,995.63
2019-02-07T03:37:51.320Z,995.52
2019-02-07T03:38:51.335Z,995.46
2019-02-07T03:39:51.410Z,995.51
2019-02-07T03:40:51.370Z,995.48
2019-02-07T03:41:51.385Z,995.45
2019-02-07T03:42:51.409Z,995.42
2019-02-07T03:43:51.419Z,995.38
2019-02-07T03:44:51.438Z,995.34
2019-02-07T03:46:02.241Z,995.35
2019-02-07T03:46:51.468Z,995.39
2019-02-07T03:47:51.486Z,995.39
2019-02-07T03:48:51.501Z,995.4
2019-02-07T03:49:51.520Z,995.42
2019-02-07T03:50:51.535Z,995.46
2019-02-07T03:51:51.550Z,995.43
2019-02-07T03:52:51.569Z,995.42
2019-02-07T03:53:51.585Z,995.43
2019-02-07T03:54:51.603Z,995.41
2019-02-07T03:55:51.618Z,995.37
2019-02-07T03:56:51.635Z,995.32
2019-02-07T03:57:51.661Z,995.37
2019-02-07T03:58:51.668Z,995.37
2019-02-07T03:59:51.691Z,995.37
2019-02-07T04:00:51.699Z,995.36
2019-02-07T04:01:51.717Z,995.37
2019-02-07T04:02:51.734Z,995.37
2019-02-07T04:03:51.750Z,995.33
2019-02-07T04:04:51.767Z,995.41
2019-02-07T04:05:51.783Z,995.44
2019-02-07T04:06:51.800Z,995.41
2019-02-07T04:07:51.816Z,995.34
2019-02-07T04:08:51.833Z,995.33
2019-02-07T04:09:51.850Z,995.32
2019-02-07T04:10:51.882Z,995.27
2019-02-07T04:11:51.884Z,995.22
2019-02-07T04:12:51.899Z,995.23
2019-02-07T04:13:51.917Z,995.17
2019-02-07T04:14:51.941Z,995.12
2019-02-07T04:15:51.948Z,995.1
2019-02-07T04:16:51.966Z,995.06
2019-02-07T04:17:51.982Z,995.02
2019-02-07T04:18:51.998Z,995.1
2019-02-07T04:19:52.016Z,995.08
2019-02-07T04:20:52.032Z,995.09
2019-02-07T04:21:52.048Z,995.13
2019-02-07T04:22:52.064Z,995.09
2019-02-07T04:23:52.080Z,995.09
2019-02-07T04:24:52.098Z,995.08
2019-02-07T04:25:52.113Z,995.04
2019-02-07T04:26:52.129Z,995.08
2019-02-07T04:27:52.147Z,995.06
2019-02-07T04:28:52.164Z,995.06
2019-02-07T04:29:52.182Z,995.07
2019-02-07T04:30:52.196Z,995.04
2019-02-07T04:31:52.213Z,994.96
2019-02-07T04:32:52.229Z,994.98
2019-02-07T04:33:52.247Z,994.94
2019-02-07T04:34:52.262Z,994.84
2019-02-07T04:35:52.279Z,994.78
2019-02-07T04:36:52.294Z,994.71
2019-02-07T04:37:52.311Z,994.69
2019-02-07T04:38:52.328Z,994.61
2019-02-07T04:39:52.345Z,994.68
2019-02-07T04:40:52.363Z,994.69
2019-02-07T04:41:52.377Z,994.67
2019-02-07T04:42:52.395Z,994.61
2019-02-07T04:43:52.409Z,994.58
2019-02-07T04:44:52.425Z,994.56
2019-02-07T04:45:52.445Z,994.6
2019-02-07T04:46:52.461Z,994.56
2019-02-07T04:47:52.476Z,994.55
2019-02-07T04:48:52.493Z,994.56
2019-02-07T04:49:52.512Z,994.57
2019-02-07T04:50:52.525Z,994.54
2019-02-07T04:51:52.540Z,994.46
2019-02-07T04:52:52.559Z,994.51
2019-02-07T04:53:52.575Z,994.45
2019-02-07T04:54:52.592Z,994.45
2019-02-07T04:55:52.606Z,994.5
2019-02-07T04:56:52.626Z,994.5
2019-02-07T04:57:52.643Z,994.48
2019-02-07T04:58:52.658Z,994.47
2019-02-07T04:59:52.673Z,994.42
2019-02-07T05:00:52.690Z,994.42
2019-02-07T05:01:52.707Z,994.38
2019-02-07T05:02:52.724Z,994.4
2019-02-07T05:03:52.740Z,994.36
2019-02-07T05:04:52.756Z,994.3
2019-02-07T05:05:52.772Z,994.3
2019-02-07T05:06:52.789Z,994.24
2019-02-07T05:07:52.804Z,994.21
2019-02-07T05:08:52.825Z,994.18
2019-02-07T05:09:52.838Z,994.15
2019-02-07T05:10:52.855Z,994.16
2019-02-07T05:11:52.872Z,994.08
2019-02-07T05:12:52.888Z,994.03
2019-02-07T05:13:52.903Z,994
2019-02-07T05:14:52.922Z,994
2019-02-07T05:15:52.937Z,993.93
2019-02-07T05:16:52.955Z,993.97
2019-02-07T05:17:52.973Z,993.91
2019-02-07T05:18:52.992Z,993.85
2019-02-07T05:19:53.003Z,993.84
2019-02-07T05:20:53.021Z,993.88
2019-02-07T05:21:53.038Z,993.85
2019-02-07T05:22:53.054Z,993.83
2019-02-07T05:23:53.069Z,993.88
2019-02-07T05:24:53.088Z,993.84
2019-02-07T05:25:53.103Z,993.77
2019-02-07T05:26:53.120Z,993.81
2019-02-07T05:27:53.138Z,993.79
2019-02-07T05:28:53.154Z,993.74
2019-02-07T05:29:53.173Z,993.77
2019-02-07T05:30:53.187Z,993.69
2019-02-07T05:31:53.205Z,993.64
2019-02-07T05:32:53.220Z,993.69
2019-02-07T05:33:53.237Z,993.63
2019-02-07T05:34:53.252Z,993.69
2019-02-07T05:35:53.569Z,993.71
2019-02-07T05:36:53.286Z,993.68
2019-02-07T05:37:53.303Z,993.67
2019-02-07T05:38:53.320Z,993.69
2019-02-07T05:39:53.337Z,993.71
2019-02-07T05:40:53.351Z,993.67
2019-02-07T05:41:53.370Z,993.75
2019-02-07T05:42:53.385Z,993.72
2019-02-07T05:43:53.402Z,993.77
2019-02-07T05:44:53.418Z,993.75
2019-02-07T05:45:53.435Z,993.61
2019-02-07T05:46:53.466Z,993.57
2019-02-07T05:47:53.468Z,993.6
2019-02-07T05:48:53.485Z,993.62
2019-02-07T05:49:53.500Z,993.6
2019-02-07T05:50:53.630Z,993.57
2019-02-07T05:51:53.532Z,993.48
2019-02-07T05:52:53.551Z,993.4
2019-02-07T05:53:53.566Z,993.4
2019-02-07T05:54:53.583Z,993.47
2019-02-07T05:55:53.600Z,993.4
2019-02-07T05:56:53.617Z,993.41
2019-02-07T05:57:53.633Z,993.38
2019-02-07T05:58:53.650Z,993.39
2019-02-07T05:59:53.664Z,993.32
2019-02-07T06:00:53.681Z,993.22
2019-02-07T06:01:53.700Z,993.22
2019-02-07T06:02:53.716Z,993.26
2019-02-07T06:03:53.731Z,993.15
2019-02-07T06:04:53.747Z,993.16
2019-02-07T06:05:53.765Z,993.17
2019-02-07T06:06:53.782Z,993.14
2019-02-07T06:07:53.798Z,993.13
2019-02-07T06:08:53.814Z,993.07
2019-02-07T06:09:53.830Z,993.08
2019-02-07T06:10:53.849Z,993.06
2019-02-07T06:11:53.865Z,993.15
2019-02-07T06:12:53.882Z,993.12
2019-02-07T06:13:53.896Z,993.12
2019-02-07T06:14:53.912Z,993.15
2019-02-07T06:15:53.936Z,993.13
2019-02-07T06:17:02.176Z,993.14
2019-02-07T06:17:53.962Z,993.19
2019-02-07T06:18:53.979Z,993.2
2019-02-07T06:19:53.997Z,993.16
2019-02-07T06:20:54.013Z,993.17
2019-02-07T06:21:54.029Z,993.13
2019-02-07T06:22:54.045Z,993.18
2019-02-07T06:23:54.061Z,993.18
2019-02-07T06:24:54.078Z,993.09
2019-02-07T06:25:54.095Z,993.1
2019-02-07T06:26:54.111Z,993.13
2019-02-07T06:27:54.132Z,993.02
2019-02-07T06:28:54.160Z,993.05
2019-02-07T06:29:54.161Z,993.09
2019-02-07T06:30:54.176Z,993.03
2019-02-07T06:31:54.193Z,993.04
2019-02-07T06:32:54.209Z,992.92
2019-02-07T06:33:54.225Z,992.95
2019-02-07T06:34:54.243Z,992.96
2019-02-07T06:35:54.261Z,992.86
2019-02-07T06:36:54.277Z,992.89
2019-02-07T06:37:54.291Z,992.86
2019-02-07T06:38:54.317Z,992.9
2019-02-07T06:39:54.326Z,992.87
2019-02-07T06:40:54.390Z,992.86
2019-02-07T06:41:54.359Z,992.86
2019-02-07T06:42:54.374Z,992.85
2019-02-07T06:43:54.392Z,992.86
2019-02-07T06:44:54.407Z,992.88
2019-02-07T06:45:54.424Z,992.87
2019-02-07T06:46:54.443Z,992.77
2019-02-07T06:47:54.458Z,992.86
2019-02-07T06:48:54.473Z,992.93
2019-02-07T06:49:54.492Z,992.96
2019-02-07T06:50:54.506Z,992.96
2019-02-07T06:51:54.527Z,992.97
2019-02-07T06:52:54.541Z,992.96
2019-02-07T06:53:54.556Z,992.96
2019-02-07T06:54:54.572Z,992.9
2019-02-07T06:55:54.590Z,992.99
2019-02-07T06:56:54.606Z,992.9
2019-02-07T06:57:54.623Z,992.94
2019-02-07T06:58:55.198Z,992.96
2019-02-07T06:59:54.654Z,992.9
2019-02-07T07:00:54.671Z,992.88
2019-02-07T07:01:54.688Z,992.82
2019-02-07T07:02:54.706Z,992.82
2019-02-07T07:03:57.451Z,992.82
2019-02-07T07:04:54.738Z,992.75
2019-02-07T07:05:54.755Z,992.77
2019-02-07T07:06:54.770Z,992.76
2019-02-07T07:07:54.789Z,992.74
2019-02-07T07:08:54.805Z,992.74
2019-02-07T07:09:54.823Z,992.72
2019-02-07T07:10:54.839Z,992.69
2019-02-07T07:11:54.855Z,992.66
2019-02-07T07:12:54.873Z,992.59
2019-02-07T07:13:54.890Z,992.61
2019-02-07T07:14:54.904Z,992.6
2019-02-07T07:15:54.921Z,992.61
2019-02-07T07:16:54.938Z,992.62
2019-02-07T07:17:54.954Z,992.55
2019-02-07T07:18:54.970Z,992.52
2019-02-07T07:19:54.994Z,992.55
2019-02-07T07:20:55.005Z,992.58
2019-02-07T07:21:55.020Z,992.55
2019-02-07T07:22:55.038Z,992.51
2019-02-07T07:23:55.056Z,992.5
2019-02-07T07:24:55.069Z,992.45
2019-02-07T07:25:55.085Z,992.42
2019-02-07T07:26:55.105Z,992.36
2019-02-07T07:27:55.121Z,992.4
2019-02-07T07:28:55.136Z,992.37
2019-02-07T07:29:55.154Z,992.33
2019-02-07T07:30:55.171Z,992.27
2019-02-07T07:31:55.187Z,992.29
2019-02-07T07:32:55.204Z,992.25
2019-02-07T07:33:55.219Z,992.21
2019-02-07T07:34:55.238Z,992.25
2019-02-07T07:35:55.252Z,992.18
2019-02-07T07:36:55.268Z,992.25
2019-02-07T07:37:55.285Z,992.26
2019-02-07T07:38:55.303Z,992.19
2019-02-07T07:39:55.319Z,992.23
2019-02-07T07:40:55.338Z,992.21
2019-02-07T07:41:55.351Z,992.25
2019-02-07T07:42:55.367Z,992.21
2019-02-07T07:43:55.387Z,992.21
2019-02-07T07:44:55.404Z,992.2
2019-02-07T07:45:55.418Z,992.18
2019-02-07T07:46:55.438Z,992.17
2019-02-07T07:47:55.449Z,992.23
2019-02-07T07:48:55.468Z,992.23
2019-02-07T07:49:55.485Z,992.2
2019-02-07T07:50:55.500Z,992.26
2019-02-07T07:51:55.517Z,992.17
2019-02-07T07:52:55.535Z,992.16
2019-02-07T07:53:55.549Z,992.18
2019-02-07T07:54:55.565Z,992.16
2019-02-07T07:55:55.583Z,992.14
2019-02-07T07:56:55.598Z,992.15
2019-02-07T07:57:55.615Z,992.23
2019-02-07T07:58:55.632Z,992.17
2019-02-07T07:59:55.648Z,992.18
2019-02-07T08:00:55.666Z,992.17
2019-02-07T08:01:55.681Z,992.19
2019-02-07T08:02:55.698Z,992.09
2019-02-07T08:03:55.714Z,992.14
2019-02-07T08:04:55.733Z,992.13
2019-02-07T08:05:55.751Z,992.14
2019-02-07T08:06:55.764Z,992.22
2019-02-07T08:07:55.780Z,992.22
2019-02-07T08:08:55.796Z,992.21
2019-02-07T08:09:55.813Z,992.25
2019-02-07T08:10:55.830Z,992.22
2019-02-07T08:11:55.847Z,992.21
2019-02-07T08:12:55.868Z,992.14
2019-02-07T08:13:55.879Z,992.14
2019-02-07T08:14:55.896Z,992.18
2019-02-07T08:15:55.912Z,992.17
2019-02-07T08:16:55.929Z,992.16
2019-02-07T08:17:55.947Z,992.13
2019-02-07T08:18:55.963Z,992.17
2019-02-07T08:19:55.978Z,992.14
2019-02-07T08:20:55.995Z,992.15
2019-02-07T08:21:56.012Z,992.17
2019-02-07T08:22:56.028Z,992.16
2019-02-07T08:23:56.046Z,992.03
2019-02-07T08:24:56.062Z,992.04
2019-02-07T08:25:56.079Z,992.02
2019-02-07T08:26:56.095Z,992.13
2019-02-07T08:27:56.114Z,992.16
2019-02-07T08:28:56.127Z,992.15
2019-02-07T08:29:56.146Z,992.12
2019-02-07T08:30:56.161Z,992.08
2019-02-07T08:31:56.177Z,992.12
2019-02-07T08:32:56.194Z,992.22
2019-02-07T08:33:56.211Z,992.13
2019-02-07T08:34:56.229Z,992.15
2019-02-07T08:35:56.243Z,992.2
2019-02-07T08:36:56.262Z,992.16
2019-02-07T08:37:58.019Z,992.19
2019-02-07T08:38:56.294Z,992.25
2019-02-07T08:39:56.311Z,992.18
2019-02-07T08:40:56.328Z,992.18
2019-02-07T08:41:56.344Z,992.19
2019-02-07T08:42:56.362Z,992.25
2019-02-07T08:43:56.392Z,992.29
2019-02-07T08:44:56.408Z,992.37
2019-02-07T08:45:56.413Z,992.33
2019-02-07T08:46:56.426Z,992.33
2019-02-07T08:47:58.512Z,992.32
2019-02-07T08:48:56.461Z,992.35
2019-02-07T08:49:56.516Z,992.33
2019-02-07T08:50:56.493Z,992.25
2019-02-07T08:51:56.511Z,992.27
2019-02-07T08:52:56.527Z,992.27
2019-02-07T08:53:56.546Z,992.3
2019-02-07T08:54:56.560Z,992.24
2019-02-07T08:55:56.577Z,992.29
2019-02-07T08:56:56.594Z,992.34
2019-02-07T08:57:56.611Z,992.26
2019-02-07T08:58:56.627Z,992.15
2019-02-07T08:59:56.644Z,992.2
2019-02-07T09:00:56.660Z,992.16
2019-02-07T09:01:56.676Z,992.15
2019-02-07T09:02:56.745Z,992.17
2019-02-07T09:03:56.710Z,992.07
2019-02-07T09:04:56.727Z,992.01
2019-02-07T09:05:56.744Z,991.95
2019-02-07T09:06:56.761Z,991.99
2019-02-07T09:07:56.777Z,992.04
2019-02-07T09:08:56.792Z,992.04
2019-02-07T09:09:56.812Z,992.08
2019-02-07T09:10:56.826Z,992.08
2019-02-07T09:11:56.843Z,992.06
2019-02-07T09:12:56.861Z,992.06
2019-02-07T09:13:56.877Z,992.02
2019-02-07T09:14:56.894Z,992.03
2019-02-07T09:15:56.911Z,992.04
2019-02-07T09:16:56.926Z,992
2019-02-07T09:17:57.095Z,992.11
2019-02-07T09:18:56.962Z,992.08
2019-02-07T09:19:56.979Z,992.06
2019-02-07T09:20:56.994Z,992.14
2019-02-07T09:21:57.013Z,992.11
2019-02-07T09:22:57.027Z,991.96
2019-02-07T09:23:57.045Z,992.05
2019-02-07T09:24:57.062Z,991.97
2019-02-07T09:25:57.076Z,992.08
2019-02-07T09:26:57.094Z,992.06
2019-02-07T09:27:57.111Z,992.02
2019-02-07T09:28:57.129Z,992.05
2019-02-07T09:29:57.144Z,992.01
2019-02-07T09:30:57.162Z,991.99
2019-02-07T09:31:57.181Z,992.01
2019-02-07T09:32:57.195Z,992.03
2019-02-07T09:33:57.211Z,992.01
2019-02-07T09:34:57.229Z,991.97
2019-02-07T09:36:04.772Z,992.03
2019-02-07T09:36:57.263Z,991.99
2019-02-07T09:37:57.279Z,992.02
2019-02-07T09:38:57.297Z,992.03
2019-02-07T09:39:57.315Z,992.01
2019-02-07T09:40:57.329Z,992.11
2019-02-07T09:41:57.346Z,992.11
2019-02-07T09:42:57.363Z,992.12
2019-02-07T09:43:57.380Z,992.11
2019-02-07T09:44:57.397Z,992.05
2019-02-07T09:45:57.412Z,992.1
2019-02-07T09:46:57.434Z,992.12
2019-02-07T09:47:57.447Z,992.11
2019-02-07T09:48:57.463Z,992.08
2019-02-07T09:49:57.481Z,992.08
2019-02-07T09:50:57.498Z,992.1
2019-02-07T09:51:57.516Z,992.15
2019-02-07T09:52:57.530Z,992.12
2019-02-07T09:53:57.548Z,992.19
2019-02-07T09:54:57.564Z,992.17
2019-02-07T09:55:57.581Z,992.18
2019-02-07T09:56:57.599Z,992.21
2019-02-07T09:57:57.615Z,992.2
2019-02-07T09:58:57.632Z,992.18
2019-02-07T09:59:57.648Z,992.12
2019-02-07T10:00:57.665Z,992.24
2019-02-07T10:01:57.682Z,992.22
2019-02-07T10:02:57.699Z,992.24
2019-02-07T10:03:57.717Z,992.25
2019-02-07T10:04:57.733Z,992.26
2019-02-07T10:05:57.750Z,992.26
2019-02-07T10:06:57.766Z,992.32
2019-02-07T10:07:57.784Z,992.36
2019-02-07T10:08:57.800Z,992.3
2019-02-07T10:09:57.816Z,992.31
2019-02-07T10:10:57.833Z,992.29
2019-02-07T10:11:57.862Z,992.34
2019-02-07T10:12:57.867Z,992.25
2019-02-07T10:13:57.885Z,992.36
2019-02-07T10:14:57.902Z,992.37
2019-02-07T10:15:57.919Z,992.33
2019-02-07T10:16:57.935Z,992.36
2019-02-07T10:17:57.957Z,992.37
2019-02-07T10:18:57.969Z,992.39
2019-02-07T10:19:57.985Z,992.43
2019-02-07T10:20:58.002Z,992.39
2019-02-07T10:21:58.019Z,992.46
2019-02-07T10:22:58.036Z,992.42
2019-02-07T10:23:58.053Z,992.38
2019-02-07T10:24:58.072Z,992.37
2019-02-07T10:25:58.087Z,992.4
2019-02-07T10:26:58.104Z,992.47
2019-02-07T10:27:58.120Z,992.44
2019-02-07T10:28:58.138Z,992.54
2019-02-07T10:29:58.155Z,992.43
2019-02-07T10:30:58.172Z,992.51
2019-02-07T10:31:58.191Z,992.48
2019-02-07T10:32:58.206Z,992.58
2019-02-07T10:33:58.224Z,992.55
2019-02-07T10:34:58.239Z,992.62
2019-02-07T10:35:58.256Z,992.59
2019-02-07T10:36:58.273Z,992.61
2019-02-07T10:37:58.291Z,992.64
2019-02-07T10:38:58.308Z,992.54
2019-02-07T10:39:58.325Z,992.67
2019-02-07T10:40:58.343Z,992.63
2019-02-07T10:41:58.360Z,992.63
2019-02-07T10:42:58.374Z,992.66
2019-02-07T10:43:58.392Z,992.58
2019-02-07T10:44:58.410Z,992.62
2019-02-07T10:45:58.424Z,992.61
2019-02-07T10:46:58.443Z,992.54
2019-02-07T10:47:58.459Z,992.54
2019-02-07T10:48:58.477Z,992.61
2019-02-07T10:49:59.483Z,992.53
2019-02-07T10:50:58.510Z,992.61
2019-02-07T10:51:58.529Z,992.53
2019-02-07T10:52:58.544Z,992.57
2019-02-07T10:53:58.569Z,992.51
2019-02-07T10:54:58.578Z,992.6
2019-02-07T10:55:58.596Z,992.53
2019-02-07T10:56:58.614Z,992.57
2019-02-07T10:57:58.630Z,992.53
2019-02-07T10:58:58.646Z,992.57
2019-02-07T10:59:58.664Z,992.57
2019-02-07T11:00:58.680Z,992.58
2019-02-07T11:01:58.698Z,992.64
2019-02-07T11:02:58.715Z,992.66
2019-02-07T11:03:58.733Z,992.65
2019-02-07T11:04:58.748Z,992.56
2019-02-07T11:05:58.766Z,992.65
2019-02-07T11:06:58.784Z,992.67
2019-02-07T11:07:58.801Z,992.61
2019-02-07T11:08:58.818Z,992.55
2019-02-07T11:09:58.834Z,992.6
2019-02-07T11:10:58.855Z,992.65
2019-02-07T11:11:58.869Z,992.57
2019-02-07T11:12:58.887Z,992.51
2019-02-07T11:13:58.904Z,992.55
2019-02-07T11:14:58.921Z,992.66
2019-02-07T11:15:58.937Z,992.6
2019-02-07T11:16:58.956Z,992.6
2019-02-07T11:17:58.972Z,992.58
2019-02-07T11:18:58.990Z,992.56
2019-02-07T11:19:59.007Z,992.52
2019-02-07T11:20:59.024Z,992.41
2019-02-07T11:21:59.041Z,992.45
2019-02-07T11:22:59.059Z,992.44
2019-02-07T11:23:59.075Z,992.37
2019-02-07T11:24:59.093Z,992.43
2019-02-07T11:25:59.113Z,992.39
2019-02-07T11:26:59.128Z,992.29
2019-02-07T11:28:09.826Z,992.47
2019-02-07T11:28:59.163Z,992.48
2019-02-07T11:29:59.179Z,992.5
2019-02-07T11:30:59.197Z,992.52
2019-02-07T11:31:59.215Z,992.32
2019-02-07T11:32:59.232Z,992.45
2019-02-07T11:33:59.248Z,992.39
2019-02-07T11:34:59.271Z,992.44
2019-02-07T11:35:59.286Z,992.47
2019-02-07T11:36:59.302Z,992.47
2019-02-07T11:37:59.320Z,992.43
2019-02-07T11:38:59.336Z,992.46
2019-02-07T11:39:59.354Z,992.44
2019-02-07T11:40:59.372Z,992.45
2019-02-07T11:41:59.390Z,992.44
2019-02-07T11:42:59.406Z,992.52
2019-02-07T11:43:59.465Z,992.48
2019-02-07T11:44:59.439Z,992.52
2019-02-07T11:45:59.459Z,992.46
2019-02-07T11:47:05.289Z,992.44
2019-02-07T11:47:59.495Z,992.38
2019-02-07T11:49:06.451Z,992.39
2019-02-07T11:49:59.529Z,992.52
2019-02-07T11:50:59.546Z,992.49
2019-02-07T11:51:59.563Z,992.46
2019-02-07T11:52:59.582Z,992.46
2019-02-07T11:53:59.599Z,992.38
2019-02-07T11:54:59.617Z,992.5
2019-02-07T11:55:59.633Z,992.48
2019-02-07T11:56:59.655Z,992.5
2019-02-07T11:57:59.671Z,992.44
2019-02-07T11:58:59.687Z,992.47
2019-02-07T11:59:59.705Z,992.46
2019-02-07T12:00:59.722Z,992.48
2019-02-07T12:02:08.698Z,992.5
2019-02-07T12:02:59.755Z,992.46
2019-02-07T12:03:59.775Z,992.43
2019-02-07T12:04:59.793Z,992.39
2019-02-07T12:05:59.810Z,992.45
2019-02-07T12:06:59.828Z,992.39
2019-02-07T12:07:59.846Z,992.4
2019-02-07T12:08:59.863Z,992.32
2019-02-07T12:09:59.879Z,992.29
2019-02-07T12:10:59.897Z,992.24
2019-02-07T12:11:59.915Z,992.23
2019-02-07T12:12:59.933Z,992.19
2019-02-07T12:13:59.951Z,992.22
2019-02-07T12:14:59.968Z,992.18
2019-02-07T12:15:59.987Z,992.17
2019-02-07T12:17:00.004Z,992.23
2019-02-07T12:18:00.022Z,992.22
2019-02-07T12:19:00.046Z,992.35
2019-02-07T12:20:00.058Z,992.33
2019-02-07T12:21:00.075Z,992.34
2019-02-07T12:22:00.092Z,992.38
2019-02-07T12:23:00.110Z,992.44
2019-02-07T12:24:00.130Z,992.41
2019-02-07T12:25:00.185Z,992.34
2019-02-07T12:26:00.163Z,992.34
2019-02-07T12:27:00.185Z,992.29
2019-02-07T12:28:00.201Z,992.31
2019-02-07T12:29:00.217Z,992.31
2019-02-07T12:30:00.235Z,992.2
2019-02-07T12:31:00.253Z,992.15
2019-02-07T12:32:00.270Z,992.14